Terminal Aerodrome Forecast
Issued by NWS

Home | Current Version | Previous Version | Text Only | Print | Product List | Glossary On
Versions: 1 2 3 4 5 6 7 8 9 10 11 12 13 14 15
000
FTUS45 KRIW 211600 AAA
TAFBPI
TAF AMD
KBPI 211610Z 2116/2212 00000KT P6SM SCT015 OVC025
      TEMPO 2116/2118 OVC015
     FM211800 VRB05KT P6SM SCT030 SCT100
     FM212200 17011KT P6SM VCTS SCT040 BKN050CB
     FM220300 10006KT P6SM VCSH SCT040 BKN060
     FM220800 12005KT P6SM VCSH SCT020 BKN035=

USA.gov is the U.S. government's official web portal to all federal, state and local government web resources and services.